sensor_id;sensor_type;location;lat;lon;timestamp;temperature;humidity
3051;DHT22;1535;51.098;6.414;2023-04-01T00:01:04;9.60;99.90
3051;DHT22;1535;51.098;6.414;2023-04-01T00:03:32;9.50;99.90
3051;DHT22;1535;51.098;6.414;2023-04-01T00:06:00;9.50;99.90
3051;DHT22;1535;51.098;6.414;2023-04-01T00:08:27;9.60;99.90
3051;DHT22;1535;51.098;6.414;2023-04-01T00:10:54;9.50;99.90
3051;DHT22;1535;51.098;6.414;2023-04-01T00:13:24;9.50;99.90
3051;DHT22;1535;51.098;6.414;2023-04-01T00:15:51;9.50;99.90
3051;DHT22;1535;51.098;6.414;2023-04-01T00:18:18;9.50;99.90
3051;DHT22;1535;51.098;6.414;2023-04-01T00:20:47;9.50;99.90
3051;DHT22;1535;51.098;6.414;2023-04-01T00:23:14;9.50;99.90
3051;DHT22;1535;51.098;6.414;2023-04-01T00:25:43;9.50;99.90
3051;DHT22;1535;51.098;6.414;2023-04-01T00:28:10;9.50;99.90
3051;DHT22;1535;51.098;6.414;2023-04-01T00:30:39;9.50;99.90
3051;DHT22;1535;51.098;6.414;2023-04-01T00:33:06;9.50;99.90
3051;DHT22;1535;51.098;6.414;2023-04-01T00:35:33;9.50;99.90
3051;DHT22;1535;51.098;6.414;2023-04-01T00:38:00;9.50;99.90
3051;DHT22;1535;51.098;6.414;2023-04-01T00:40:28;9.50;99.90
3051;DHT22;1535;51.098;6.414;2023-04-01T00:42:56;9.50;99.90
3051;DHT22;1535;51.098;6.414;2023-04-01T00:45:33;9.50;99.90
3051;DHT22;1535;51.098;6.414;2023-04-01T00:48:05;9.50;99.90
3051;DHT22;1535;51.098;6.414;2023-04-01T00:50:33;9.50;99.90
3051;DHT22;1535;51.098;6.414;2023-04-01T00:53:02;9.50;99.90
3051;DHT22;1535;51.098;6.414;2023-04-01T00:55:32;9.50;99.90
3051;DHT22;1535;51.098;6.414;2023-04-01T00:58:02;9.50;99.90
3051;DHT22;1535;51.098;6.414;2023-04-01T01:00:30;9.50;99.90
3051;DHT22;1535;51.098;6.414;2023-04-01T01:02:57;9.50;99.90
3051;DHT22;1535;51.098;6.414;2023-04-01T01:05:34;9.50;99.90
3051;DHT22;1535;51.098;6.414;2023-04-01T01:08:12;9.50;99.90
3051;DHT22;1535;51.098;6.414;2023-04-01T01:10:42;9.50;99.90
3051;DHT22;1535;51.098;6.414;2023-04-01T01:13:17;9.50;99.90
3051;DHT22;1535;51.098;6.414;2023-04-01T01:15:53;9.50;99.90
3051;DHT22;1535;51.098;6.414;2023-04-01T01:18:27;9.50;99.90
3051;DHT22;1535;51.098;6.414;2023-04-01T01:21:28;9.50;99.90
3051;DHT22;1535;51.098;6.414;2023-04-01T01:24:18;9.50;99.90
3051;DHT22;1535;51.098;6.414;2023-04-01T01:27:01;9.40;99.90
3051;DHT22;1535;51.098;6.414;2023-04-01T01:29:42;9.50;99.90
3051;DHT22;1535;51.098;6.414;2023-04-01T01:32:18;9.40;99.90
3051;DHT22;1535;51.098;6.414;2023-04-01T01:34:51;9.40;99.90
3051;DHT22;1535;51.098;6.414;2023-04-01T01:37:24;9.40;99.90
3051;DHT22;1535;51.098;6.414;2023-04-01T01:39:56;9.40;99.90
3051;DHT22;1535;51.098;6.414;2023-04-01T01:42:25;9.50;99.90
3051;DHT22;1535;51.098;6.414;2023-04-01T01:44:55;9.40;99.90
3051;DHT22;1535;51.098;6.414;2023-04-01T01:47:23;9.40;99.90
3051;DHT22;1535;51.098;6.414;2023-04-01T01:49:53;9.30;99.90
3051;DHT22;1535;51.098;6.414;2023-04-01T01:52:23;9.40;99.90
3051;DHT22;1535;51.098;6.414;2023-04-01T01:54:52;9.30;99.90
3051;DHT22;1535;51.098;6.414;2023-04-01T01:57:24;9.30;99.90
3051;DHT22;1535;51.098;6.414;2023-04-01T01:59:54;9.30;99.90
3051;DHT22;1535;51.098;6.414;2023-04-01T02:02:23;9.30;99.90
3051;DHT22;1535;51.098;6.414;2023-04-01T02:04:50;9.30;99.90
3051;DHT22;1535;51.098;6.414;2023-04-01T02:07:20;9.30;99.90
3051;DHT22;1535;51.098;6.414;2023-04-01T02:09:50;9.30;99.90
3051;DHT22;1535;51.098;6.414;2023-04-01T02:12:18;9.30;99.90
3051;DHT22;1535;51.098;6.414;2023-04-01T02:14:49;9.30;99.90
3051;DHT22;1535;51.098;6.414;2023-04-01T02:17:19;9.30;99.90
3051;DHT22;1535;51.098;6.414;2023-04-01T02:19:50;9.30;99.90
3051;DHT22;1535;51.098;6.414;2023-04-01T02:22:21;9.20;99.90
3051;DHT22;1535;51.098;6.414;2023-04-01T02:24:52;9.30;99.90
3051;DHT22;1535;51.098;6.414;2023-04-01T02:27:20;9.30;99.90
3051;DHT22;1535;51.098;6.414;2023-04-01T02:29:47;9.30;99.90
3051;DHT22;1535;51.098;6.414;2023-04-01T02:32:14;9.30;99.90
3051;DHT22;1535;51.098;6.414;2023-04-01T02:34:43;9.30;99.90
3051;DHT22;1535;51.098;6.414;2023-04-01T02:37:11;9.30;99.90
3051;DHT22;1535;51.098;6.414;2023-04-01T02:39:39;9.30;99.90
3051;DHT22;1535;51.098;6.414;2023-04-01T02:42:09;9.30;99.90
3051;DHT22;1535;51.098;6.414;2023-04-01T02:44:37;9.30;99.90
3051;DHT22;1535;51.098;6.414;2023-04-01T02:47:04;9.30;99.90
3051;DHT22;1535;51.098;6.414;2023-04-01T02:49:31;9.30;99.90
3051;DHT22;1535;51.098;6.414;2023-04-01T02:51:58;9.30;99.90
3051;DHT22;1535;51.098;6.414;2023-04-01T02:54:25;9.20;99.90
3051;DHT22;1535;51.098;6.414;2023-04-01T02:56:52;9.30;99.90
3051;DHT22;1535;51.098;6.414;2023-04-01T02:59:21;9.20;99.90
3051;DHT22;1535;51.098;6.414;2023-04-01T03:01:48;9.20;99.90
3051;DHT22;1535;51.098;6.414;2023-04-01T03:04:15;9.30;99.90
3051;DHT22;1535;51.098;6.414;2023-04-01T03:06:42;9.30;99.90
3051;DHT22;1535;51.098;6.414;2023-04-01T03:09:10;9.30;99.90
3051;DHT22;1535;51.098;6.414;2023-04-01T03:11:37;9.30;99.90
3051;DHT22;1535;51.098;6.414;2023-04-01T03:14:05;9.30;99.90
3051;DHT22;1535;51.098;6.414;2023-04-01T03:16:33;9.30;99.90
3051;DHT22;1535;51.098;6.414;2023-04-01T03:19:00;9.20;99.90
3051;DHT22;1535;51.098;6.414;2023-04-01T03:21:27;9.30;99.90
3051;DHT22;1535;51.098;6.414;2023-04-01T03:23:55;9.30;99.90
3051;DHT22;1535;51.098;6.414;2023-04-01T03:26:22;9.30;99.90
3051;DHT22;1535;51.098;6.414;2023-04-01T03:28:49;9.30;99.90
3051;DHT22;1535;51.098;6.414;2023-04-01T03:31:16;9.30;99.90
3051;DHT22;1535;51.098;6.414;2023-04-01T03:33:45;9.20;99.90
3051;DHT22;1535;51.098;6.414;2023-04-01T03:36:12;9.30;99.90
3051;DHT22;1535;51.098;6.414;2023-04-01T03:38:39;9.30;99.90
3051;DHT22;1535;51.098;6.414;2023-04-01T03:41:06;9.40;99.90
3051;DHT22;1535;51.098;6.414;2023-04-01T03:43:33;9.40;99.90
3051;DHT22;1535;51.098;6.414;2023-04-01T03:46:00;9.40;99.90
3051;DHT22;1535;51.098;6.414;2023-04-01T03:48:28;9.30;99.90
3051;DHT22;1535;51.098;6.414;2023-04-01T03:50:56;9.30;99.90
3051;DHT22;1535;51.098;6.414;2023-04-01T03:53:23;9.40;99.90
3051;DHT22;1535;51.098;6.414;2023-04-01T03:55:50;9.30;99.90
3051;DHT22;1535;51.098;6.414;2023-04-01T03:58:17;9.30;99.90
3051;DHT22;1535;51.098;6.414;2023-04-01T04:00:44;9.40;99.90
3051;DHT22;1535;51.098;6.414;2023-04-01T04:03:11;9.30;99.90
3051;DHT22;1535;51.098;6.414;2023-04-01T04:05:40;9.40;99.90
3051;DHT22;1535;51.098;6.414;2023-04-01T04:08:15;9.30;99.90
3051;DHT22;1535;51.098;6.414;2023-04-01T04:10:42;9.30;99.90
3051;DHT22;1535;51.098;6.414;2023-04-01T04:13:09;9.30;99.90
3051;DHT22;1535;51.098;6.414;2023-04-01T04:15:36;9.30;99.90
3051;DHT22;1535;51.098;6.414;2023-04-01T04:18:03;9.30;99.90
3051;DHT22;1535;51.098;6.414;2023-04-01T04:20:31;9.30;99.90
3051;DHT22;1535;51.098;6.414;2023-04-01T04:22:58;9.30;99.90
3051;DHT22;1535;51.098;6.414;2023-04-01T04:25:27;9.40;99.90
3051;DHT22;1535;51.098;6.414;2023-04-01T04:27:55;9.40;99.90
3051;DHT22;1535;51.098;6.414;2023-04-01T04:30:22;9.40;99.90
3051;DHT22;1535;51.098;6.414;2023-04-01T04:32:49;9.40;99.90
3051;DHT22;1535;51.098;6.414;2023-04-01T04:35:16;9.40;99.90
3051;DHT22;1535;51.098;6.414;2023-04-01T04:37:43;9.40;99.90
3051;DHT22;1535;51.098;6.414;2023-04-01T04:40:10;9.40;99.90
3051;DHT22;1535;51.098;6.414;2023-04-01T04:42:38;9.40;99.90
3051;DHT22;1535;51.098;6.414;2023-04-01T04:45:06;9.30;99.90
3051;DHT22;1535;51.098;6.414;2023-04-01T04:47:33;9.30;99.90
3051;DHT22;1535;51.098;6.414;2023-04-01T04:50:00;9.30;99.90
3051;DHT22;1535;51.098;6.414;2023-04-01T04:52:27;9.30;99.90
3051;DHT22;1535;51.098;6.414;2023-04-01T04:54:54;9.30;99.90
3051;DHT22;1535;51.098;6.414;2023-04-01T04:57:20;9.30;99.90
3051;DHT22;1535;51.098;6.414;2023-04-01T04:59:50;9.30;99.90
3051;DHT22;1535;51.098;6.414;2023-04-01T05:02:16;9.30;99.90
3051;DHT22;1535;51.098;6.414;2023-04-01T05:04:43;9.30;99.90
3051;DHT22;1535;51.098;6.414;2023-04-01T05:07:11;9.30;99.90
3051;DHT22;1535;51.098;6.414;2023-04-01T05:09:38;9.30;99.90
3051;DHT22;1535;51.098;6.414;2023-04-01T05:12:05;9.30;99.90
3051;DHT22;1535;51.098;6.414;2023-04-01T05:14:32;9.30;99.90
3051;DHT22;1535;51.098;6.414;2023-04-01T05:17:00;9.30;99.90
3051;DHT22;1535;51.098;6.414;2023-04-01T05:19:27;9.30;99.90
3051;DHT22;1535;51.098;6.414;2023-04-01T05:21:54;9.30;99.90
3051;DHT22;1535;51.098;6.414;2023-04-01T05:24:21;9.40;99.90
3051;DHT22;1535;51.098;6.414;2023-04-01T05:26:48;9.30;99.90
3051;DHT22;1535;51.098;6.414;2023-04-01T05:29:15;9.20;99.90
3051;DHT22;1535;51.098;6.414;2023-04-01T05:31:42;9.30;99.90
3051;DHT22;1535;51.098;6.414;2023-04-01T05:34:10;9.30;99.90
3051;DHT22;1535;51.098;6.414;2023-04-01T05:36:37;9.30;99.90
3051;DHT22;1535;51.098;6.414;2023-04-01T05:39:04;9.40;99.90
3051;DHT22;1535;51.098;6.414;2023-04-01T05:41:31;9.30;99.90
3051;DHT22;1535;51.098;6.414;2023-04-01T05:44:01;9.40;99.90
3051;DHT22;1535;51.098;6.414;2023-04-01T05:46:28;9.30;99.90
3051;DHT22;1535;51.098;6.414;2023-04-01T05:48:55;9.30;99.90
3051;DHT22;1535;51.098;6.414;2023-04-01T05:51:23;9.30;99.90
3051;DHT22;1535;51.098;6.414;2023-04-01T05:53:52;9.40;99.90
3051;DHT22;1535;51.098;6.414;2023-04-01T05:56:19;9.30;99.90
3051;DHT22;1535;51.098;6.414;2023-04-01T05:58:51;9.30;99.90
3051;DHT22;1535;51.098;6.414;2023-04-01T06:01:18;9.30;99.90
3051;DHT22;1535;51.098;6.414;2023-04-01T06:03:44;9.40;99.90
3051;DHT22;1535;51.098;6.414;2023-04-01T06:06:14;9.30;99.90
3051;DHT22;1535;51.098;6.414;2023-04-01T06:08:43;9.30;99.90
3051;DHT22;1535;51.098;6.414;2023-04-01T06:11:22;9.40;99.90
3051;DHT22;1535;51.098;6.414;2023-04-01T06:14:05;9.30;99.90
3051;DHT22;1535;51.098;6.414;2023-04-01T06:16:45;9.30;99.90
3051;DHT22;1535;51.098;6.414;2023-04-01T06:19:24;9.40;99.90
3051;DHT22;1535;51.098;6.414;2023-04-01T06:22:33;9.40;99.90
3051;DHT22;1535;51.098;6.414;2023-04-01T06:25:36;9.40;99.90
3051;DHT22;1535;51.098;6.414;2023-04-01T06:28:22;9.40;99.90
3051;DHT22;1535;51.098;6.414;2023-04-01T06:30:57;9.40;99.90
3051;DHT22;1535;51.098;6.414;2023-04-01T06:33:40;9.30;99.90
3051;DHT22;1535;51.098;6.414;2023-04-01T06:36:34;9.40;99.90
3051;DHT22;1535;51.098;6.414;2023-04-01T06:39:19;9.40;99.90
3051;DHT22;1535;51.098;6.414;2023-04-01T06:44:58;9.30;99.90
3051;DHT22;1535;51.098;6.414;2023-04-01T06:47:39;9.40;99.90
3051;DHT22;1535;51.098;6.414;2023-04-01T06:50:18;9.40;99.90
3051;DHT22;1535;51.098;6.414;2023-04-01T06:52:54;9.50;99.90
3051;DHT22;1535;51.098;6.414;2023-04-01T06:55:27;9.40;99.90
3051;DHT22;1535;51.098;6.414;2023-04-01T06:57:59;9.40;99.90
3051;DHT22;1535;51.098;6.414;2023-04-01T07:00:30;9.40;99.90
3051;DHT22;1535;51.098;6.414;2023-04-01T07:03:05;9.40;99.90
3051;DHT22;1535;51.098;6.414;2023-04-01T07:05:34;9.30;99.90
3051;DHT22;1535;51.098;6.414;2023-04-01T07:08:03;9.30;99.90
3051;DHT22;1535;51.098;6.414;2023-04-01T07:10:35;9.40;99.90
3051;DHT22;1535;51.098;6.414;2023-04-01T07:13:13;9.40;99.90
3051;DHT22;1535;51.098;6.414;2023-04-01T07:15:43;9.40;99.90
3051;DHT22;1535;51.098;6.414;2023-04-01T07:18:15;9.40;99.90
3051;DHT22;1535;51.098;6.414;2023-04-01T07:20:43;9.40;99.90
3051;DHT22;1535;51.098;6.414;2023-04-01T07:23:16;9.40;99.90
3051;DHT22;1535;51.098;6.414;2023-04-01T07:25:51;9.40;99.90
3051;DHT22;1535;51.098;6.414;2023-04-01T07:28:20;9.40;99.90
3051;DHT22;1535;51.098;6.414;2023-04-01T07:30:52;9.40;99.90
3051;DHT22;1535;51.098;6.414;2023-04-01T07:33:27;9.30;99.90
3051;DHT22;1535;51.098;6.414;2023-04-01T07:35:58;9.40;99.90
3051;DHT22;1535;51.098;6.414;2023-04-01T07:38:34;9.40;99.90
3051;DHT22;1535;51.098;6.414;2023-04-01T07:41:08;9.50;99.90
3051;DHT22;1535;51.098;6.414;2023-04-01T07:43:52;9.50;99.90
3051;DHT22;1535;51.098;6.414;2023-04-01T07:46:32;9.60;99.90
3051;DHT22;1535;51.098;6.414;2023-04-01T07:49:04;9.50;99.90
3051;DHT22;1535;51.098;6.414;2023-04-01T07:51:38;9.60;99.90
3051;DHT22;1535;51.098;6.414;2023-04-01T07:54:11;9.60;99.90
3051;DHT22;1535;51.098;6.414;2023-04-01T07:56:44;9.60;99.90
3051;DHT22;1535;51.098;6.414;2023-04-01T07:59:19;9.60;99.90
3051;DHT22;1535;51.098;6.414;2023-04-01T08:01:52;9.60;99.90
3051;DHT22;1535;51.098;6.414;2023-04-01T08:04:38;9.60;99.90
3051;DHT22;1535;51.098;6.414;2023-04-01T08:07:11;9.70;99.90
3051;DHT22;1535;51.098;6.414;2023-04-01T08:09:44;9.70;99.90
3051;DHT22;1535;51.098;6.414;2023-04-01T08:12:25;9.70;99.90
3051;DHT22;1535;51.098;6.414;2023-04-01T08:15:06;9.60;99.90
3051;DHT22;1535;51.098;6.414;2023-04-01T08:17:40;9.70;99.90
3051;DHT22;1535;51.098;6.414;2023-04-01T08:20:28;9.60;99.90
3051;DHT22;1535;51.098;6.414;2023-04-01T08:22:59;9.60;99.90
3051;DHT22;1535;51.098;6.414;2023-04-01T08:25:28;9.70;99.90
3051;DHT22;1535;51.098;6.414;2023-04-01T08:28:00;9.70;99.90
3051;DHT22;1535;51.098;6.414;2023-04-01T08:30:38;9.70;99.90
3051;DHT22;1535;51.098;6.414;2023-04-01T08:33:12;9.70;99.90
3051;DHT22;1535;51.098;6.414;2023-04-01T08:35:45;9.70;99.90
3051;DHT22;1535;51.098;6.414;2023-04-01T08:38:17;9.70;99.90
3051;DHT22;1535;51.098;6.414;2023-04-01T08:40:59;9.80;99.90
3051;DHT22;1535;51.098;6.414;2023-04-01T08:43:43;9.80;99.90
3051;DHT22;1535;51.098;6.414;2023-04-01T08:46:26;9.80;99.90
3051;DHT22;1535;51.098;6.414;2023-04-01T08:49:12;9.80;99.90
3051;DHT22;1535;51.098;6.414;2023-04-01T08:52:03;9.80;99.90
3051;DHT22;1535;51.098;6.414;2023-04-01T08:54:46;9.80;99.90
3051;DHT22;1535;51.098;6.414;2023-04-01T08:57:21;9.80;99.90
3051;DHT22;1535;51.098;6.414;2023-04-01T08:59:58;9.90;99.90
3051;DHT22;1535;51.098;6.414;2023-04-01T09:02:50;9.90;99.90
3051;DHT22;1535;51.098;6.414;2023-04-01T09:05:36;9.90;99.90
3051;DHT22;1535;51.098;6.414;2023-04-01T09:08:14;9.80;99.90
3051;DHT22;1535;51.098;6.414;2023-04-01T09:11:04;9.90;99.90
3051;DHT22;1535;51.098;6.414;2023-04-01T09:14:03;9.90;99.90
3051;DHT22;1535;51.098;6.414;2023-04-01T09:17:02;9.70;99.90
3051;DHT22;1535;51.098;6.414;2023-04-01T09:19:45;9.70;99.90
3051;DHT22;1535;51.098;6.414;2023-04-01T09:22:29;9.70;99.90
3051;DHT22;1535;51.098;6.414;2023-04-01T09:25:36;9.70;99.90
3051;DHT22;1535;51.098;6.414;2023-04-01T09:28:10;9.70;99.90
3051;DHT22;1535;51.098;6.414;2023-04-01T09:30:54;9.70;99.90
3051;DHT22;1535;51.098;6.414;2023-04-01T09:34:14;9.70;99.90
3051;DHT22;1535;51.098;6.414;2023-04-01T09:37:02;9.70;99.90
3051;DHT22;1535;51.098;6.414;2023-04-01T09:39:37;9.60;99.90
3051;DHT22;1535;51.098;6.414;2023-04-01T09:42:15;9.70;99.90
3051;DHT22;1535;51.098;6.414;2023-04-01T09:47:54;9.80;99.90
3051;DHT22;1535;51.098;6.414;2023-04-01T09:50:42;9.70;99.90
3051;DHT22;1535;51.098;6.414;2023-04-01T09:53:30;9.80;99.90
3051;DHT22;1535;51.098;6.414;2023-04-01T09:59:11;9.80;99.90
3051;DHT22;1535;51.098;6.414;2023-04-01T10:05:11;9.90;99.90
3051;DHT22;1535;51.098;6.414;2023-04-01T10:08:18;10.00;99.90
3051;DHT22;1535;51.098;6.414;2023-04-01T10:14:01;10.10;99.90
3051;DHT22;1535;51.098;6.414;2023-04-01T10:16:58;10.10;99.90
3051;DHT22;1535;51.098;6.414;2023-04-01T10:19:55;10.10;99.90
3051;DHT22;1535;51.098;6.414;2023-04-01T10:23:02;10.20;99.90
3051;DHT22;1535;51.098;6.414;2023-04-01T10:25:53;10.20;99.90
3051;DHT22;1535;51.098;6.414;2023-04-01T10:28:41;10.20;99.90
3051;DHT22;1535;51.098;6.414;2023-04-01T10:31:42;10.10;99.90
3051;DHT22;1535;51.098;6.414;2023-04-01T10:34:40;10.20;99.90
3051;DHT22;1535;51.098;6.414;2023-04-01T10:37:29;10.40;99.90
3051;DHT22;1535;51.098;6.414;2023-04-01T10:46:52;10.50;99.90
3051;DHT22;1535;51.098;6.414;2023-04-01T10:49:54;10.50;99.90
3051;DHT22;1535;51.098;6.414;2023-04-01T10:58:52;10.60;99.90
3051;DHT22;1535;51.098;6.414;2023-04-01T11:08:15;10.50;99.90
3051;DHT22;1535;51.098;6.414;2023-04-01T11:14:50;10.60;99.90
3051;DHT22;1535;51.098;6.414;2023-04-01T11:20:35;10.80;99.90
3051;DHT22;1535;51.098;6.414;2023-04-01T11:23:43;10.90;99.90
3051;DHT22;1535;51.098;6.414;2023-04-01T11:26:24;11.30;99.90
3051;DHT22;1535;51.098;6.414;2023-04-01T11:29:07;11.30;99.90
3051;DHT22;1535;51.098;6.414;2023-04-01T11:31:44;11.30;99.90
3051;DHT22;1535;51.098;6.414;2023-04-01T11:34:24;11.40;99.90
3051;DHT22;1535;51.098;6.414;2023-04-01T11:37:07;11.30;99.90
3051;DHT22;1535;51.098;6.414;2023-04-01T11:39:40;11.30;99.90
3051;DHT22;1535;51.098;6.414;2023-04-01T11:42:20;11.40;99.90
3051;DHT22;1535;51.098;6.414;2023-04-01T11:44:56;11.40;99.90
3051;DHT22;1535;51.098;6.414;2023-04-01T11:47:40;11.60;99.90
3051;DHT22;1535;51.098;6.414;2023-04-01T11:50:26;11.50;99.90
3051;DHT22;1535;51.098;6.414;2023-04-01T11:53:23;11.40;99.90
3051;DHT22;1535;51.098;6.414;2023-04-01T11:56:07;11.40;99.90
3051;DHT22;1535;51.098;6.414;2023-04-01T11:59:05;11.40;99.90
3051;DHT22;1535;51.098;6.414;2023-04-01T12:01:48;11.30;99.90
3051;DHT22;1535;51.098;6.414;2023-04-01T12:04:40;11.30;99.90
3051;DHT22;1535;51.098;6.414;2023-04-01T12:07:19;11.40;99.90
3051;DHT22;1535;51.098;6.414;2023-04-01T12:09:56;11.50;99.90
3051;DHT22;1535;51.098;6.414;2023-04-01T12:12:32;11.60;99.90
3051;DHT22;1535;51.098;6.414;2023-04-01T12:15:18;11.70;99.90
3051;DHT22;1535;51.098;6.414;2023-04-01T12:17:52;11.60;99.90
3051;DHT22;1535;51.098;6.414;2023-04-01T12:20:30;11.60;99.90
3051;DHT22;1535;51.098;6.414;2023-04-01T12:23:12;11.70;99.90
3051;DHT22;1535;51.098;6.414;2023-04-01T12:25:57;11.70;99.90
3051;DHT22;1535;51.098;6.414;2023-04-01T12:28:40;11.80;99.90
3051;DHT22;1535;51.098;6.414;2023-04-01T12:31:19;11.70;99.90
3051;DHT22;1535;51.098;6.414;2023-04-01T12:34:01;11.60;99.90
3051;DHT22;1535;51.098;6.414;2023-04-01T12:36:48;11.40;99.90
3051;DHT22;1535;51.098;6.414;2023-04-01T12:39:31;11.50;99.90
3051;DHT22;1535;51.098;6.414;2023-04-01T12:42:07;11.30;99.90
3051;DHT22;1535;51.098;6.414;2023-04-01T12:45:01;11.20;99.90
3051;DHT22;1535;51.098;6.414;2023-04-01T12:47:56;11.20;99.90
3051;DHT22;1535;51.098;6.414;2023-04-01T12:50:38;11.20;99.90
3051;DHT22;1535;51.098;6.414;2023-04-01T12:53:20;11.00;99.90
3051;DHT22;1535;51.098;6.414;2023-04-01T12:55:52;10.90;99.90
3051;DHT22;1535;51.098;6.414;2023-04-01T12:58:41;10.80;99.90
3051;DHT22;1535;51.098;6.414;2023-04-01T13:01:29;10.70;99.90
3051;DHT22;1535;51.098;6.414;2023-04-01T13:04:31;10.80;99.90
3051;DHT22;1535;51.098;6.414;2023-04-01T13:07:27;10.70;99.90
3051;DHT22;1535;51.098;6.414;2023-04-01T13:10:06;10.70;99.90
3051;DHT22;1535;51.098;6.414;2023-04-01T13:12:47;10.70;99.90
3051;DHT22;1535;51.098;6.414;2023-04-01T13:15:26;10.80;99.90
3051;DHT22;1535;51.098;6.414;2023-04-01T13:18:02;10.90;99.90
3051;DHT22;1535;51.098;6.414;2023-04-01T13:20:42;11.00;99.90
3051;DHT22;1535;51.098;6.414;2023-04-01T13:23:18;11.00;99.90
3051;DHT22;1535;51.098;6.414;2023-04-01T13:25:53;11.00;99.90
3051;DHT22;1535;51.098;6.414;2023-04-01T13:28:24;10.90;99.90
3051;DHT22;1535;51.098;6.414;2023-04-01T13:30:59;10.90;99.90
3051;DHT22;1535;51.098;6.414;2023-04-01T13:33:38;11.00;99.90
3051;DHT22;1535;51.098;6.414;2023-04-01T13:36:16;11.00;99.90
3051;DHT22;1535;51.098;6.414;2023-04-01T13:39:11;11.00;99.90
3051;DHT22;1535;51.098;6.414;2023-04-01T13:41:55;10.90;99.90
3051;DHT22;1535;51.098;6.414;2023-04-01T13:44:30;10.90;99.90
3051;DHT22;1535;51.098;6.414;2023-04-01T13:47:17;10.80;99.90
3051;DHT22;1535;51.098;6.414;2023-04-01T13:53:19;10.80;99.90
3051;DHT22;1535;51.098;6.414;2023-04-01T13:55:55;10.80;99.90
3051;DHT22;1535;51.098;6.414;2023-04-01T13:58:34;10.90;99.90
3051;DHT22;1535;51.098;6.414;2023-04-01T14:01:08;10.90;99.90
3051;DHT22;1535;51.098;6.414;2023-04-01T14:03:52;10.80;99.90
3051;DHT22;1535;51.098;6.414;2023-04-01T14:06:28;10.80;99.90
3051;DHT22;1535;51.098;6.414;2023-04-01T14:09:34;10.70;99.90
3051;DHT22;1535;51.098;6.414;2023-04-01T14:12:13;10.80;99.90
3051;DHT22;1535;51.098;6.414;2023-04-01T14:14:56;10.70;99.90
3051;DHT22;1535;51.098;6.414;2023-04-01T14:17:45;10.50;99.90
3051;DHT22;1535;51.098;6.414;2023-04-01T14:20:24;10.50;99.90
3051;DHT22;1535;51.098;6.414;2023-04-01T14:23:11;10.50;99.90
3051;DHT22;1535;51.098;6.414;2023-04-01T14:25:48;10.50;99.90
3051;DHT22;1535;51.098;6.414;2023-04-01T14:28:29;10.60;99.90
3051;DHT22;1535;51.098;6.414;2023-04-01T14:34:06;10.70;99.90
3051;DHT22;1535;51.098;6.414;2023-04-01T14:36:51;10.60;99.90
3051;DHT22;1535;51.098;6.414;2023-04-01T14:39:43;10.50;99.90
3051;DHT22;1535;51.098;6.414;2023-04-01T14:42:23;10.40;99.90
3051;DHT22;1535;51.098;6.414;2023-04-01T14:45:28;10.40;99.90
3051;DHT22;1535;51.098;6.414;2023-04-01T14:48:00;10.40;99.90
3051;DHT22;1535;51.098;6.414;2023-04-01T14:50:41;10.50;99.90
3051;DHT22;1535;51.098;6.414;2023-04-01T14:53:26;10.50;99.90
3051;DHT22;1535;51.098;6.414;2023-04-01T14:55:55;10.40;99.90
3051;DHT22;1535;51.098;6.414;2023-04-01T14:58:23;10.50;99.90
3051;DHT22;1535;51.098;6.414;2023-04-01T15:01:00;10.50;99.90
3051;DHT22;1535;51.098;6.414;2023-04-01T15:03:36;10.60;99.90
3051;DHT22;1535;51.098;6.414;2023-04-01T15:09:12;10.50;99.90
3051;DHT22;1535;51.098;6.414;2023-04-01T15:11:48;10.40;99.90
3051;DHT22;1535;51.098;6.414;2023-04-01T15:14:26;10.40;99.90
3051;DHT22;1535;51.098;6.414;2023-04-01T15:17:02;10.40;99.90
3051;DHT22;1535;51.098;6.414;2023-04-01T15:19:41;10.40;99.90
3051;DHT22;1535;51.098;6.414;2023-04-01T15:22:45;10.40;99.90
3051;DHT22;1535;51.098;6.414;2023-04-01T15:25:27;10.40;99.90
3051;DHT22;1535;51.098;6.414;2023-04-01T15:28:03;10.50;99.90
3051;DHT22;1535;51.098;6.414;2023-04-01T15:30:34;10.50;99.90
3051;DHT22;1535;51.098;6.414;2023-04-01T15:33:20;10.60;99.90
3051;DHT22;1535;51.098;6.414;2023-04-01T15:35:55;10.60;99.90
3051;DHT22;1535;51.098;6.414;2023-04-01T15:38:30;10.60;99.90
3051;DHT22;1535;51.098;6.414;2023-04-01T15:41:08;10.50;99.90
3051;DHT22;1535;51.098;6.414;2023-04-01T15:43:41;10.50;99.90
3051;DHT22;1535;51.098;6.414;2023-04-01T15:46:19;10.40;99.90
3051;DHT22;1535;51.098;6.414;2023-04-01T15:48:57;10.30;99.90
3051;DHT22;1535;51.098;6.414;2023-04-01T15:51:55;10.30;99.90
3051;DHT22;1535;51.098;6.414;2023-04-01T15:57:32;10.40;99.90
3051;DHT22;1535;51.098;6.414;2023-04-01T16:00:09;10.60;99.90
3051;DHT22;1535;51.098;6.414;2023-04-01T16:02:43;10.60;99.90
3051;DHT22;1535;51.098;6.414;2023-04-01T16:05:25;10.60;99.90
3051;DHT22;1535;51.098;6.414;2023-04-01T16:08:07;10.60;99.90
3051;DHT22;1535;51.098;6.414;2023-04-01T16:10:51;10.40;99.90
3051;DHT22;1535;51.098;6.414;2023-04-01T16:13:28;10.40;99.90
3051;DHT22;1535;51.098;6.414;2023-04-01T16:16:04;10.30;99.90
3051;DHT22;1535;51.098;6.414;2023-04-01T16:18:48;10.20;99.90
3051;DHT22;1535;51.098;6.414;2023-04-01T16:21:28;10.30;99.90
3051;DHT22;1535;51.098;6.414;2023-04-01T16:24:04;10.20;99.90
3051;DHT22;1535;51.098;6.414;2023-04-01T16:26:37;10.20;99.90
3051;DHT22;1535;51.098;6.414;2023-04-01T16:29:11;10.20;99.90
3051;DHT22;1535;51.098;6.414;2023-04-01T16:31:45;10.10;99.90
3051;DHT22;1535;51.098;6.414;2023-04-01T16:34:19;10.10;99.90
3051;DHT22;1535;51.098;6.414;2023-04-01T16:36:49;10.10;99.90
3051;DHT22;1535;51.098;6.414;2023-04-01T16:39:28;10.10;99.90
3051;DHT22;1535;51.098;6.414;2023-04-01T16:42:16;10.10;99.90
3051;DHT22;1535;51.098;6.414;2023-04-01T16:44:52;10.00;99.90
3051;DHT22;1535;51.098;6.414;2023-04-01T16:47:22;10.00;99.90
3051;DHT22;1535;51.098;6.414;2023-04-01T16:49:58;10.00;99.90
3051;DHT22;1535;51.098;6.414;2023-04-01T16:52:47;9.90;99.90
3051;DHT22;1535;51.098;6.414;2023-04-01T16:55:20;9.90;99.90
3051;DHT22;1535;51.098;6.414;2023-04-01T16:57:51;9.90;99.90
3051;DHT22;1535;51.098;6.414;2023-04-01T17:00:25;9.80;99.90
3051;DHT22;1535;51.098;6.414;2023-04-01T17:03:01;9.80;99.90
3051;DHT22;1535;51.098;6.414;2023-04-01T17:05:45;9.80;99.90
3051;DHT22;1535;51.098;6.414;2023-04-01T17:08:22;9.80;99.90
3051;DHT22;1535;51.098;6.414;2023-04-01T17:10:56;9.80;99.90
3051;DHT22;1535;51.098;6.414;2023-04-01T17:13:34;9.80;99.90
3051;DHT22;1535;51.098;6.414;2023-04-01T17:16:14;9.80;99.90
3051;DHT22;1535;51.098;6.414;2023-04-01T17:18:47;9.70;99.90
3051;DHT22;1535;51.098;6.414;2023-04-01T17:21:21;9.60;99.90
3051;DHT22;1535;51.098;6.414;2023-04-01T17:23:52;9.60;99.90
3051;DHT22;1535;51.098;6.414;2023-04-01T17:26:35;9.60;99.90
3051;DHT22;1535;51.098;6.414;2023-04-01T17:29:06;9.60;99.90
3051;DHT22;1535;51.098;6.414;2023-04-01T17:31:46;9.50;99.90
3051;DHT22;1535;51.098;6.414;2023-04-01T17:34:29;9.50;99.90
3051;DHT22;1535;51.098;6.414;2023-04-01T17:37:12;9.50;99.90
3051;DHT22;1535;51.098;6.414;2023-04-01T17:39:51;9.50;99.90
3051;DHT22;1535;51.098;6.414;2023-04-01T17:42:24;9.50;99.90
3051;DHT22;1535;51.098;6.414;2023-04-01T17:44:58;9.40;99.90
3051;DHT22;1535;51.098;6.414;2023-04-01T17:47:46;9.40;99.90
3051;DHT22;1535;51.098;6.414;2023-04-01T17:50:30;9.40;99.90
3051;DHT22;1535;51.098;6.414;2023-04-01T17:53:16;9.40;99.90
3051;DHT22;1535;51.098;6.414;2023-04-01T17:55:55;9.40;99.90
3051;DHT22;1535;51.098;6.414;2023-04-01T17:58:29;9.40;99.90
3051;DHT22;1535;51.098;6.414;2023-04-01T18:01:22;9.30;99.90
3051;DHT22;1535;51.098;6.414;2023-04-01T18:04:07;9.40;99.90
3051;DHT22;1535;51.098;6.414;2023-04-01T18:06:38;9.40;99.90